createdAt,value
2022-12-15T00:02:20.229Z,83.11
2022-12-15T00:05:06.621Z,83.43
2022-12-15T00:07:52.635Z,83.12
2022-12-15T00:10:38.337Z,83.44
2022-12-15T00:13:29.282Z,83.36
2022-12-15T00:16:14.864Z,83.68
2022-12-15T00:19:01.576Z,83.84
2022-12-15T00:21:47.283Z,83.69
2022-12-15T00:24:32.568Z,83.55
2022-12-15T00:27:17.952Z,83.73
2022-12-15T00:30:03.352Z,83.24
2022-12-15T00:32:48.812Z,83.58
2022-12-15T00:35:35.572Z,82.77
2022-12-15T00:38:26.196Z,82.58
2022-12-15T00:40:58.829Z,82.22
2022-12-15T00:43:26.815Z,82.08
2022-12-15T00:46:12.517Z,82.15
2022-12-15T00:48:40.581Z,81.80
2022-12-15T00:51:08.890Z,81.88
2022-12-15T00:53:54.715Z,81.97
2022-12-15T00:56:40.263Z,82.17
2022-12-15T00:59:25.589Z,82.20
2022-12-15T01:02:11.048Z,82.21
2022-12-15T01:04:56.200Z,82.18
2022-12-15T01:07:42.782Z,81.85
2022-12-15T01:10:28.151Z,81.98
2022-12-15T01:13:13.435Z,81.79
2022-12-15T01:15:59.460Z,82.37
2022-12-15T01:18:44.539Z,82.18
2022-12-15T01:21:17.527Z,82.29
2022-12-15T01:23:46.552Z,81.77
2022-12-15T01:26:14.257Z,82.02
2022-12-15T01:28:41.971Z,81.84
2022-12-15T01:31:13.176Z,81.87
2022-12-15T01:33:42.535Z,81.65
2022-12-15T01:36:11.391Z,81.50
2022-12-15T01:38:39.128Z,81.28
2022-12-15T01:41:10.868Z,81.50
2022-12-15T01:43:40.961Z,81.13
2022-12-15T01:46:10.368Z,81.05
2022-12-15T01:48:43.946Z,81.16
2022-12-15T01:51:18.900Z,81.21
2022-12-15T01:53:52.756Z,80.79
2022-12-15T01:56:24.383Z,80.67
2022-12-15T01:58:55.639Z,80.72
2022-12-15T02:01:23.612Z,80.63
2022-12-15T02:03:52.019Z,81.08
2022-12-15T02:06:22.416Z,80.86
2022-12-15T02:08:54.069Z,81.21
2022-12-15T02:11:43.866Z,80.87
2022-12-15T02:14:12.876Z,80.98
2022-12-15T02:16:58.675Z,80.75
2022-12-15T02:19:51.635Z,80.74
2022-12-15T02:22:34.061Z,80.99
2022-12-15T02:25:23.548Z,80.98
2022-12-15T02:27:59.835Z,80.76
2022-12-15T02:30:42.180Z,80.18
2022-12-15T02:33:20.930Z,80.11
2022-12-15T02:35:56.560Z,80.70
2022-12-15T02:38:33.638Z,79.66
2022-12-15T02:41:03.363Z,79.10
2022-12-15T02:43:34.918Z,79.03
2022-12-15T02:46:16.722Z,79.67
2022-12-15T02:48:57.448Z,79.88
2022-12-15T02:51:37.473Z,79.77
2022-12-15T02:54:29.728Z,80.32
2022-12-15T02:57:06.216Z,80.10
2022-12-15T02:59:39.190Z,80.18
2022-12-15T03:02:10.961Z,80.00
2022-12-15T03:04:39.058Z,80.17
2022-12-15T03:07:10.793Z,80.08
2022-12-15T03:09:38.543Z,80.18
2022-12-15T03:12:07.178Z,80.20
2022-12-15T03:14:35.372Z,80.38
2022-12-15T03:17:04.085Z,80.28
2022-12-15T03:19:33.064Z,80.98
2022-12-15T03:22:00.828Z,81.18
2022-12-15T03:24:28.511Z,81.41
2022-12-15T03:26:56.444Z,81.08
2022-12-15T03:29:24.151Z,81.42
2022-12-15T03:31:51.940Z,81.59
2022-12-15T03:34:19.753Z,81.50
2022-12-15T03:36:48.831Z,81.84
2022-12-15T03:39:17.268Z,81.93
2022-12-15T03:41:45.148Z,81.62
2022-12-15T03:44:12.811Z,82.01
2022-12-15T03:46:40.465Z,82.57
2022-12-15T03:49:08.157Z,82.52
2022-12-15T03:51:35.855Z,82.49
2022-12-15T03:54:05.170Z,82.23
2022-12-15T03:56:33.328Z,82.92
2022-12-15T03:59:01.102Z,82.46
2022-12-15T04:01:30.100Z,82.05
2022-12-15T04:04:00.782Z,81.84
2022-12-15T04:06:29.777Z,81.92
2022-12-15T04:08:57.612Z,81.68
2022-12-15T04:11:26.728Z,81.66
2022-12-15T04:13:54.454Z,81.94
2022-12-15T04:16:22.236Z,81.63
2022-12-15T04:19:10.931Z,81.86
2022-12-15T04:21:37.642Z,81.51
2022-12-15T04:24:23.070Z,82.15
2022-12-15T04:27:09.622Z,81.52
2022-12-15T04:29:54.917Z,81.94
2022-12-15T04:32:40.176Z,81.60
2022-12-15T04:35:25.649Z,81.77
2022-12-15T04:38:10.871Z,81.01
2022-12-15T04:40:56.785Z,81.28
2022-12-15T04:43:43.356Z,81.65
2022-12-15T04:46:28.718Z,81.84
2022-12-15T04:49:13.982Z,81.66
2022-12-15T04:51:59.219Z,81.51
2022-12-15T04:54:44.664Z,81.47
2022-12-15T04:57:29.968Z,81.26
2022-12-15T05:00:16.505Z,81.11
2022-12-15T05:03:01.672Z,80.64
2022-12-15T05:05:46.947Z,80.67
2022-12-15T05:08:32.370Z,81.30
2022-12-15T05:11:17.912Z,81.08
2022-12-15T05:14:03.311Z,80.68
2022-12-15T05:16:50.095Z,81.00
2022-12-15T05:19:35.498Z,80.97
2022-12-15T05:22:20.966Z,80.68
2022-12-15T05:25:06.532Z,80.89
2022-12-15T05:27:51.985Z,80.49
2022-12-15T05:30:37.590Z,80.88
2022-12-15T05:33:06.861Z,80.71
2022-12-15T05:35:34.580Z,80.67
2022-12-15T05:38:02.292Z,80.59
2022-12-15T05:40:29.980Z,80.56
2022-12-15T05:42:59.278Z,80.63
2022-12-15T05:45:27.408Z,80.51
2022-12-15T05:47:55.831Z,80.36
2022-12-15T05:50:24.896Z,80.97
2022-12-15T05:52:52.795Z,80.59
2022-12-15T05:55:20.755Z,80.09
2022-12-15T05:57:52.548Z,80.21
2022-12-15T06:00:21.072Z,80.66
2022-12-15T06:02:49.974Z,80.67
2022-12-15T06:05:18.100Z,80.72
2022-12-15T06:07:47.207Z,79.96
2022-12-15T06:10:14.942Z,80.19
2022-12-15T06:12:42.600Z,80.05
2022-12-15T06:15:11.029Z,79.81
2022-12-15T06:17:38.679Z,80.08
2022-12-15T06:20:07.428Z,80.46
2022-12-15T06:22:35.182Z,80.32
2022-12-15T06:25:04.593Z,79.89
2022-12-15T06:27:32.395Z,80.10
2022-12-15T06:30:00.066Z,79.71
2022-12-15T06:32:28.084Z,80.09
2022-12-15T06:34:55.831Z,80.15
2022-12-15T06:37:23.616Z,80.33
2022-12-15T06:39:51.499Z,80.20
2022-12-15T06:42:20.592Z,80.77
2022-12-15T06:44:48.303Z,80.52
2022-12-15T06:47:18.444Z,80.38
2022-12-15T06:49:46.101Z,80.20
2022-12-15T06:52:13.803Z,79.98
2022-12-15T06:54:41.475Z,79.97
2022-12-15T06:57:09.274Z,80.20
2022-12-15T06:59:39.120Z,80.40
2022-12-15T07:02:16.305Z,80.40
2022-12-15T07:04:44.919Z,79.90
2022-12-15T07:07:12.648Z,80.31
2022-12-15T07:09:40.451Z,79.91
2022-12-15T07:12:10.255Z,80.11
2022-12-15T07:14:39.332Z,79.93
2022-12-15T07:17:07.070Z,80.01
2022-12-15T07:19:34.751Z,79.99
2022-12-15T07:22:02.397Z,80.13
2022-12-15T07:24:30.109Z,80.01
2022-12-15T07:26:57.803Z,80.00
2022-12-15T07:29:25.539Z,80.54
2022-12-15T07:31:54.667Z,80.20
2022-12-15T07:34:22.636Z,80.31
2022-12-15T07:36:52.712Z,80.08
2022-12-15T07:39:21.125Z,79.72
2022-12-15T07:41:48.929Z,79.43
2022-12-15T07:44:17.428Z,79.50
2022-12-15T07:46:46.803Z,79.29
2022-12-15T07:49:16.253Z,79.03
2022-12-15T07:51:43.948Z,78.97
2022-12-15T07:54:12.359Z,79.07
2022-12-15T07:56:40.407Z,78.64
2022-12-15T07:59:08.772Z,78.57
2022-12-15T08:01:36.710Z,78.17
2022-12-15T08:04:04.893Z,78.42
2022-12-15T08:06:33.934Z,78.40
2022-12-15T08:09:01.611Z,77.72
2022-12-15T08:11:33.783Z,78.10
2022-12-15T08:14:03.646Z,77.72
2022-12-15T08:16:34.399Z,77.74
2022-12-15T08:19:02.425Z,77.07
2022-12-15T08:21:31.223Z,77.11
2022-12-15T08:24:01.782Z,76.93
2022-12-15T08:26:31.093Z,76.41
2022-12-15T08:29:24.443Z,76.71
2022-12-15T08:31:50.286Z,76.15
2022-12-15T08:34:18.003Z,76.08
2022-12-15T08:36:45.652Z,75.69
2022-12-15T08:39:14.721Z,75.65
2022-12-15T08:41:42.400Z,75.45
2022-12-15T08:44:10.128Z,75.47
2022-12-15T08:46:37.846Z,74.85
2022-12-15T08:49:05.843Z,75.23
2022-12-15T08:51:34.472Z,74.84
2022-12-15T08:54:02.345Z,74.89
2022-12-15T08:56:31.457Z,74.86
2022-12-15T08:59:01.649Z,73.96
2022-12-15T09:01:31.990Z,74.09
2022-12-15T09:04:01.281Z,73.43
2022-12-15T09:06:31.423Z,73.56
2022-12-15T09:09:01.072Z,73.59
2022-12-15T09:11:31.499Z,73.47
2022-12-15T09:13:59.581Z,73.65
2022-12-15T09:16:28.523Z,73.00
2022-12-15T09:18:57.818Z,71.70
2022-12-15T09:21:27.809Z,72.33
2022-12-15T09:24:00.768Z,71.53
2022-12-15T09:26:30.451Z,71.35
2022-12-15T09:28:59.512Z,70.95
2022-12-15T09:31:29.245Z,71.09
2022-12-15T09:33:59.512Z,71.13
2022-12-15T09:36:28.360Z,70.29
2022-12-15T09:38:56.143Z,70.07
2022-12-15T09:41:27.146Z,70.21
2022-12-15T09:43:59.089Z,70.54
2022-12-15T09:46:50.166Z,69.69
2022-12-15T09:49:31.806Z,70.22
2022-12-15T09:52:10.719Z,69.96
2022-12-15T09:54:41.585Z,69.81
2022-12-15T09:57:17.694Z,70.19
2022-12-15T09:59:58.894Z,69.46
2022-12-15T10:02:49.786Z,69.55
2022-12-15T10:08:17.336Z,69.90
2022-12-15T10:10:53.263Z,69.98
2022-12-15T10:13:28.006Z,69.15
2022-12-15T10:16:01.754Z,71.04
2022-12-15T10:18:36.854Z,69.97
2022-12-15T10:21:04.918Z,68.42
2022-12-15T10:23:36.905Z,68.56
2022-12-15T10:26:19.085Z,68.38
2022-12-15T10:29:12.136Z,69.56
2022-12-15T10:31:50.669Z,69.89
2022-12-15T10:34:26.242Z,70.31
2022-12-15T10:36:55.144Z,68.79
2022-12-15T10:39:24.445Z,69.40
2022-12-15T10:42:12.852Z,68.09
2022-12-15T10:44:42.424Z,69.41
2022-12-15T10:47:12.184Z,69.12
2022-12-15T10:49:41.229Z,68.07
2022-12-15T10:52:17.912Z,67.76
2022-12-15T10:54:48.386Z,68.38
2022-12-15T10:57:18.547Z,67.83
2022-12-15T10:59:46.321Z,67.95
2022-12-15T11:02:42.472Z,67.22
2022-12-15T11:05:18.260Z,67.72
2022-12-15T11:07:47.570Z,67.82
2022-12-15T11:10:22.084Z,67.88
2022-12-15T11:12:59.163Z,67.35
2022-12-15T11:15:44.196Z,67.62
2022-12-15T11:18:27.024Z,67.39
2022-12-15T11:21:02.031Z,67.33
2022-12-15T11:23:46.706Z,67.71
2022-12-15T11:26:27.510Z,67.07
2022-12-15T11:29:00.078Z,67.86
2022-12-15T11:31:35.920Z,66.62
2022-12-15T11:34:04.271Z,66.90
2022-12-15T11:37:08.836Z,66.78
2022-12-15T11:39:49.834Z,67.34
2022-12-15T11:42:30.077Z,66.64
2022-12-15T11:45:08.609Z,66.97
2022-12-15T11:47:44.727Z,66.08
2022-12-15T11:50:30.017Z,66.59
2022-12-15T11:53:18.909Z,67.32
2022-12-15T11:55:55.531Z,67.29
2022-12-15T11:58:36.916Z,66.27
2022-12-15T12:01:15.540Z,67.24
2022-12-15T12:03:56.547Z,67.40
2022-12-15T12:06:34.691Z,67.04
2022-12-15T12:09:20.607Z,67.58
2022-12-15T12:11:54.976Z,67.51
2022-12-15T12:14:36.409Z,67.46
2022-12-15T12:17:08.167Z,67.62
2022-12-15T12:19:42.345Z,66.96
2022-12-15T12:22:18.746Z,67.16
2022-12-15T12:24:51.654Z,67.78
2022-12-15T12:27:27.740Z,67.61
2022-12-15T12:30:01.575Z,67.00
2022-12-15T12:32:40.059Z,68.33
2022-12-15T12:38:04.778Z,68.04
2022-12-15T12:40:46.794Z,68.00
2022-12-15T12:43:31.596Z,68.10
2022-12-15T12:46:05.020Z,68.54
2022-12-15T12:48:37.701Z,68.53
2022-12-15T12:51:24.400Z,68.91
2022-12-15T12:53:52.486Z,68.86
2022-12-15T12:56:38.897Z,68.81
2022-12-15T12:59:26.503Z,68.63
2022-12-15T13:01:55.920Z,68.90
2022-12-15T13:04:40.385Z,69.06
2022-12-15T13:07:30.261Z,69.09
2022-12-15T13:10:17.387Z,69.25
2022-12-15T13:12:52.633Z,69.17
2022-12-15T13:15:35.118Z,69.89
2022-12-15T13:18:08.176Z,69.91
2022-12-15T13:20:37.379Z,69.94
2022-12-15T13:23:38.071Z,69.45
2022-12-15T13:26:15.736Z,70.17
2022-12-15T13:31:49.394Z,70.56
2022-12-15T13:34:25.696Z,70.52
2022-12-15T13:36:55.936Z,70.49
2022-12-15T13:39:57.572Z,70.86
2022-12-15T13:42:48.210Z,70.95
2022-12-15T13:45:50.611Z,70.71
2022-12-15T13:48:38.177Z,71.20
2022-12-15T13:51:19.608Z,71.66
2022-12-15T13:53:51.832Z,71.70
2022-12-15T13:56:35.732Z,71.65
2022-12-15T13:59:07.912Z,71.69
2022-12-15T14:01:35.588Z,71.72
2022-12-15T14:04:12.525Z,72.00
2022-12-15T14:06:47.028Z,71.70
2022-12-15T14:09:23.903Z,71.47
2022-12-15T14:11:53.886Z,72.04
2022-12-15T14:14:26.422Z,71.97
2022-12-15T14:16:58.683Z,72.08
2022-12-15T14:19:27.246Z,71.84
2022-12-15T14:21:57.084Z,72.61
2022-12-15T14:24:38.619Z,72.36
2022-12-15T14:27:07.451Z,72.49
2022-12-15T14:29:36.612Z,72.46
2022-12-15T14:32:05.325Z,72.74
2022-12-15T14:34:36.798Z,72.76
2022-12-15T14:37:09.369Z,72.91
2022-12-15T14:39:40.928Z,73.29
2022-12-15T14:42:13.970Z,72.99
2022-12-15T14:44:49.759Z,73.53
2022-12-15T14:47:21.680Z,73.59
2022-12-15T14:49:50.109Z,73.51
2022-12-15T14:52:29.251Z,73.37
2022-12-15T14:54:59.081Z,73.33
2022-12-15T14:57:29.831Z,74.04
2022-12-15T14:59:59.471Z,73.86
2022-12-15T15:02:30.911Z,74.01
2022-12-15T15:03:03.659Z,69.96
2022-12-15T15:03:10.679Z,68.43
2022-12-15T15:03:13.112Z,70.37
2022-12-15T15:05:03.109Z,74.17
2022-12-15T15:07:33.105Z,74.44
2022-12-15T15:10:02.867Z,74.90
2022-12-15T15:12:44.840Z,74.92
2022-12-15T15:15:17.159Z,74.93
2022-12-15T15:17:48.985Z,75.16
2022-12-15T15:20:21.408Z,75.06
2022-12-15T15:23:04.384Z,75.63
2022-12-15T15:25:41.428Z,75.93
2022-12-15T15:28:23.054Z,76.05
2022-12-15T15:30:56.763Z,76.52
2022-12-15T15:33:26.044Z,76.40
2022-12-15T15:35:56.612Z,76.48
2022-12-15T15:38:26.930Z,76.58
2022-12-15T15:40:56.655Z,76.43
2022-12-15T15:43:25.338Z,77.20
2022-12-15T15:46:01.196Z,77.47
2022-12-15T15:48:32.722Z,77.60
2022-12-15T15:51:02.016Z,77.28
2022-12-15T15:53:32.715Z,77.38
2022-12-15T15:56:01.568Z,77.15
2022-12-15T15:58:29.582Z,77.48
2022-12-15T16:00:58.936Z,77.57
2022-12-15T16:03:26.931Z,77.47
2022-12-15T16:05:54.836Z,78.00
2022-12-15T16:08:28.758Z,78.57
2022-12-15T16:10:56.789Z,78.05
2022-12-15T16:13:26.536Z,78.60
2022-12-15T16:15:55.189Z,78.38
2022-12-15T16:18:24.537Z,78.82
2022-12-15T16:20:53.417Z,78.81
2022-12-15T16:23:23.729Z,79.01
2022-12-15T16:25:54.181Z,79.04
2022-12-15T16:28:23.856Z,79.11
2022-12-15T16:30:52.247Z,79.07
2022-12-15T16:33:20.252Z,79.60
2022-12-15T16:35:51.266Z,79.77
2022-12-15T16:38:23.970Z,79.37
2022-12-15T16:40:51.927Z,79.24
2022-12-15T16:43:22.793Z,79.15
2022-12-15T16:45:52.746Z,79.59
2022-12-15T16:48:21.180Z,79.75
2022-12-15T16:50:55.173Z,80.06
2022-12-15T16:53:27.524Z,80.08
2022-12-15T16:55:57.601Z,79.42
2022-12-15T16:58:27.175Z,80.03
2022-12-15T17:00:55.616Z,80.17
2022-12-15T17:03:26.029Z,80.12
2022-12-15T17:05:57.082Z,80.04
2022-12-15T17:08:28.559Z,80.21
2022-12-15T17:10:56.892Z,80.02
2022-12-15T17:13:36.591Z,80.01
2022-12-15T17:16:07.789Z,80.29
2022-12-15T17:18:35.672Z,80.29
2022-12-15T17:21:09.111Z,80.96
2022-12-15T17:23:37.153Z,80.67
2022-12-15T17:26:28.124Z,80.63
2022-12-15T17:28:54.566Z,80.84
2022-12-15T17:31:24.304Z,81.39
2022-12-15T17:33:52.576Z,81.66
2022-12-15T17:36:24.111Z,81.87
2022-12-15T17:38:55.275Z,81.45
2022-12-15T17:41:57.438Z,81.60
2022-12-15T17:44:37.383Z,81.71
2022-12-15T17:47:07.926Z,81.70
2022-12-15T17:49:37.727Z,81.65
2022-12-15T17:52:23.680Z,81.59
2022-12-15T17:54:52.254Z,81.26
2022-12-15T17:57:20.075Z,81.37
2022-12-15T17:59:47.984Z,81.07
2022-12-15T18:02:16.029Z,81.89
2022-12-15T18:04:44.394Z,82.30
2022-12-15T18:07:18.279Z,82.41
2022-12-15T18:09:46.508Z,82.72
2022-12-15T18:12:21.171Z,82.06
2022-12-15T18:14:49.283Z,82.23
2022-12-15T18:17:17.086Z,82.01
2022-12-15T18:19:44.976Z,82.07
2022-12-15T18:22:15.172Z,82.20
2022-12-15T18:24:44.320Z,81.94
2022-12-15T18:27:21.513Z,82.21
2022-12-15T18:29:49.237Z,82.06
2022-12-15T18:32:17.869Z,82.41
2022-12-15T18:34:46.545Z,81.85
2022-12-15T18:37:16.964Z,81.68
2022-12-15T18:39:46.517Z,81.81
2022-12-15T18:42:16.282Z,81.45
2022-12-15T18:44:47.289Z,81.49
2022-12-15T18:47:18.096Z,81.60
2022-12-15T18:49:46.155Z,82.03
2022-12-15T18:52:18.499Z,82.75
2022-12-15T18:54:48.390Z,82.85
2022-12-15T18:57:27.889Z,82.66
2022-12-15T18:59:58.227Z,82.33
2022-12-15T19:02:26.151Z,82.93
2022-12-15T19:04:53.935Z,83.09
2022-12-15T19:07:21.610Z,82.87
2022-12-15T19:09:51.224Z,83.18
2022-12-15T19:12:19.063Z,83.26
2022-12-15T19:14:48.183Z,83.30
2022-12-15T19:17:35.854Z,82.62
2022-12-15T19:20:22.671Z,82.56
2022-12-15T19:22:50.948Z,82.23
2022-12-15T19:25:25.958Z,82.22
2022-12-15T19:27:58.924Z,82.17
2022-12-15T19:30:29.165Z,82.55
2022-12-15T19:32:57.261Z,82.59
2022-12-15T19:35:25.307Z,83.01
2022-12-15T19:37:55.092Z,82.64
2022-12-15T19:40:29.269Z,82.34
2022-12-15T19:42:58.204Z,81.57
2022-12-15T19:45:28.026Z,81.65
2022-12-15T19:47:56.058Z,81.99
2022-12-15T19:50:26.572Z,82.00
2022-12-15T19:52:58.066Z,82.18
2022-12-15T19:55:30.442Z,82.20
2022-12-15T19:57:58.163Z,83.01
2022-12-15T20:00:27.167Z,82.67
2022-12-15T20:02:56.619Z,82.90
2022-12-15T20:05:25.883Z,83.20
2022-12-15T20:07:54.886Z,82.78
2022-12-15T20:10:31.981Z,82.85
2022-12-15T20:13:03.209Z,82.87
2022-12-15T20:15:30.936Z,82.77
2022-12-15T20:17:58.620Z,83.04
2022-12-15T20:20:28.519Z,83.15
2022-12-15T20:22:59.932Z,82.80
2022-12-15T20:25:30.087Z,82.92
2022-12-15T20:28:00.168Z,82.94
2022-12-15T20:30:32.679Z,83.30
2022-12-15T20:33:01.088Z,83.00
2022-12-15T20:35:31.025Z,82.79
2022-12-15T20:37:58.810Z,82.64
2022-12-15T20:40:28.158Z,82.94
2022-12-15T20:42:56.849Z,82.96
2022-12-15T20:45:26.904Z,83.55
2022-12-15T20:47:56.945Z,83.72
2022-12-15T20:50:28.795Z,83.85
2022-12-15T20:52:56.619Z,84.73
2022-12-15T20:55:24.460Z,83.93
2022-12-15T20:57:52.201Z,83.66
2022-12-15T21:00:20.647Z,83.59
2022-12-15T21:02:49.307Z,83.45
2022-12-15T21:05:23.219Z,83.29
2022-12-15T21:07:51.939Z,83.54
2022-12-15T21:10:21.567Z,83.39
2022-12-15T21:12:50.474Z,83.68
2022-12-15T21:15:20.881Z,83.82
2022-12-15T21:17:57.953Z,83.34
2022-12-15T21:20:40.702Z,83.65
2022-12-15T21:23:19.620Z,83.44
2022-12-15T21:25:48.281Z,83.59
2022-12-15T21:28:16.223Z,83.47
2022-12-15T21:30:44.765Z,83.63
2022-12-15T21:33:12.862Z,83.53
2022-12-15T21:35:45.997Z,83.46
2022-12-15T21:38:33.332Z,83.29
2022-12-15T21:41:03.594Z,83.26
2022-12-15T21:43:33.647Z,83.26
2022-12-15T21:46:02.530Z,83.43
2022-12-15T21:48:47.797Z,83.70
2022-12-15T21:51:18.534Z,83.99
2022-12-15T21:53:47.430Z,83.82
2022-12-15T21:56:16.454Z,83.97
2022-12-15T21:58:44.290Z,83.63
2022-12-15T22:01:15.548Z,84.01
2022-12-15T22:03:45.902Z,84.10
2022-12-15T22:06:20.070Z,83.73
2022-12-15T22:08:48.189Z,83.31
2022-12-15T22:11:24.354Z,83.29
2022-12-15T22:13:55.167Z,83.61
2022-12-15T22:16:23.280Z,82.98
2022-12-15T22:18:53.195Z,83.35
2022-12-15T22:21:24.463Z,83.84
2022-12-15T22:23:52.686Z,84.31
2022-12-15T22:26:23.267Z,84.48
2022-12-15T22:28:52.052Z,84.19
2022-12-15T22:31:19.822Z,84.09
2022-12-15T22:33:47.602Z,83.83
2022-12-15T22:36:15.227Z,83.97
2022-12-15T22:38:45.051Z,83.85
2022-12-15T22:41:19.316Z,84.13
2022-12-15T22:43:50.940Z,84.04
2022-12-15T22:46:22.387Z,83.97
2022-12-15T22:48:52.119Z,84.06
2022-12-15T22:51:20.630Z,84.08
2022-12-15T22:53:49.884Z,83.22
2022-12-15T22:56:25.632Z,82.98
2022-12-15T22:58:58.675Z,83.48
2022-12-15T23:01:27.192Z,83.87
2022-12-15T23:03:55.597Z,83.97
2022-12-15T23:06:24.066Z,83.74
2022-12-15T23:08:55.784Z,83.34
2022-12-15T23:11:39.815Z,83.09
2022-12-15T23:14:09.800Z,83.60
2022-12-15T23:16:37.246Z,83.54
2022-12-15T23:19:08.252Z,84.04
2022-12-15T23:21:36.693Z,83.44
2022-12-15T23:24:06.124Z,83.62
2022-12-15T23:26:33.831Z,83.66
2022-12-15T23:29:02.051Z,83.42
2022-12-15T23:31:30.250Z,84.05
2022-12-15T23:33:58.158Z,84.39
2022-12-15T23:36:25.972Z,84.15
2022-12-15T23:38:55.138Z,83.97
2022-12-15T23:41:24.151Z,83.51
2022-12-15T23:43:51.918Z,83.60
2022-12-15T23:46:19.670Z,83.38
2022-12-15T23:48:47.393Z,83.14
2022-12-15T23:51:18.005Z,83.31
2022-12-15T23:53:47.527Z,83.03
2022-12-15T23:56:16.789Z,83.15
2022-12-15T23:58:47.671Z,83.21
